sensor_id;sensor_type;location;lat;lon;timestamp;temperature;humidity
4813;DHT22;2420;51.202;8.698;2024-03-06T00:01:32;5.40;1.00
4813;DHT22;2420;51.202;8.698;2024-03-06T00:03:58;5.40;1.00
4813;DHT22;2420;51.202;8.698;2024-03-06T00:06:24;5.40;1.00
4813;DHT22;2420;51.202;8.698;2024-03-06T00:08:50;5.50;1.00
4813;DHT22;2420;51.202;8.698;2024-03-06T00:11:16;5.60;1.00
4813;DHT22;2420;51.202;8.698;2024-03-06T00:13:42;5.50;1.00
4813;DHT22;2420;51.202;8.698;2024-03-06T00:16:08;5.30;1.00
4813;DHT22;2420;51.202;8.698;2024-03-06T00:18:34;5.40;1.00
4813;DHT22;2420;51.202;8.698;2024-03-06T00:21:00;5.60;1.00
4813;DHT22;2420;51.202;8.698;2024-03-06T00:23:25;5.50;1.00
4813;DHT22;2420;51.202;8.698;2024-03-06T00:25:51;5.60;1.00
4813;DHT22;2420;51.202;8.698;2024-03-06T00:28:17;5.50;1.00
4813;DHT22;2420;51.202;8.698;2024-03-06T00:30:42;5.20;1.00
4813;DHT22;2420;51.202;8.698;2024-03-06T00:33:08;5.50;1.00
4813;DHT22;2420;51.202;8.698;2024-03-06T00:35:33;5.30;1.00
4813;DHT22;2420;51.202;8.698;2024-03-06T00:37:59;5.30;1.00
4813;DHT22;2420;51.202;8.698;2024-03-06T00:40:28;5.10;1.00
4813;DHT22;2420;51.202;8.698;2024-03-06T00:42:56;5.10;1.00
4813;DHT22;2420;51.202;8.698;2024-03-06T00:45:22;5.40;1.00
4813;DHT22;2420;51.202;8.698;2024-03-06T00:47:48;5.40;1.00
4813;DHT22;2420;51.202;8.698;2024-03-06T00:50:13;5.30;1.00
4813;DHT22;2420;51.202;8.698;2024-03-06T00:52:39;5.50;1.00
4813;DHT22;2420;51.202;8.698;2024-03-06T00:55:05;5.20;1.00
4813;DHT22;2420;51.202;8.698;2024-03-06T00:57:30;5.50;1.00
4813;DHT22;2420;51.202;8.698;2024-03-06T00:59:56;5.50;1.00
4813;DHT22;2420;51.202;8.698;2024-03-06T01:02:22;5.30;1.00
4813;DHT22;2420;51.202;8.698;2024-03-06T01:04:47;5.40;1.00
4813;DHT22;2420;51.202;8.698;2024-03-06T01:07:13;5.50;1.00
4813;DHT22;2420;51.202;8.698;2024-03-06T01:09:38;5.40;1.00
4813;DHT22;2420;51.202;8.698;2024-03-06T01:12:04;5.30;1.00
4813;DHT22;2420;51.202;8.698;2024-03-06T01:14:31;5.10;1.00
4813;DHT22;2420;51.202;8.698;2024-03-06T01:16:56;5.40;1.00
4813;DHT22;2420;51.202;8.698;2024-03-06T01:19:22;5.30;1.00
4813;DHT22;2420;51.202;8.698;2024-03-06T01:21:48;5.00;1.00
4813;DHT22;2420;51.202;8.698;2024-03-06T01:24:14;5.00;1.00
4813;DHT22;2420;51.202;8.698;2024-03-06T01:26:39;5.30;1.00
4813;DHT22;2420;51.202;8.698;2024-03-06T01:29:06;5.00;1.00
4813;DHT22;2420;51.202;8.698;2024-03-06T01:31:31;5.30;1.00
4813;DHT22;2420;51.202;8.698;2024-03-06T01:33:57;5.30;1.00
4813;DHT22;2420;51.202;8.698;2024-03-06T01:36:22;5.10;1.00
4813;DHT22;2420;51.202;8.698;2024-03-06T01:38:48;5.20;1.00
4813;DHT22;2420;51.202;8.698;2024-03-06T01:41:15;5.30;1.00
4813;DHT22;2420;51.202;8.698;2024-03-06T01:43:40;5.10;1.00
4813;DHT22;2420;51.202;8.698;2024-03-06T01:46:06;5.20;1.00
4813;DHT22;2420;51.202;8.698;2024-03-06T01:48:32;5.50;1.00
4813;DHT22;2420;51.202;8.698;2024-03-06T01:50:59;5.10;1.00
4813;DHT22;2420;51.202;8.698;2024-03-06T01:53:29;5.20;1.00
4813;DHT22;2420;51.202;8.698;2024-03-06T01:55:56;5.00;1.00
4813;DHT22;2420;51.202;8.698;2024-03-06T01:58:23;5.00;1.00
4813;DHT22;2420;51.202;8.698;2024-03-06T02:00:50;5.00;1.00
4813;DHT22;2420;51.202;8.698;2024-03-06T02:03:16;5.00;1.00
4813;DHT22;2420;51.202;8.698;2024-03-06T02:05:42;5.00;1.00
4813;DHT22;2420;51.202;8.698;2024-03-06T02:08:08;5.10;1.00
4813;DHT22;2420;51.202;8.698;2024-03-06T02:10:34;5.00;1.00
4813;DHT22;2420;51.202;8.698;2024-03-06T02:13:00;5.20;1.00
4813;DHT22;2420;51.202;8.698;2024-03-06T02:15:26;5.00;1.00
4813;DHT22;2420;51.202;8.698;2024-03-06T02:17:51;4.90;1.00
4813;DHT22;2420;51.202;8.698;2024-03-06T02:20:25;4.80;1.00
4813;DHT22;2420;51.202;8.698;2024-03-06T02:22:50;4.90;1.00
4813;DHT22;2420;51.202;8.698;2024-03-06T02:25:16;4.80;1.00
4813;DHT22;2420;51.202;8.698;2024-03-06T02:27:43;4.90;1.00
4813;DHT22;2420;51.202;8.698;2024-03-06T02:30:10;4.80;1.00
4813;DHT22;2420;51.202;8.698;2024-03-06T02:32:36;4.90;1.00
4813;DHT22;2420;51.202;8.698;2024-03-06T02:35:02;4.80;1.00
4813;DHT22;2420;51.202;8.698;2024-03-06T02:37:28;4.80;1.00
4813;DHT22;2420;51.202;8.698;2024-03-06T02:39:54;4.90;1.00
4813;DHT22;2420;51.202;8.698;2024-03-06T02:42:20;4.80;1.00
4813;DHT22;2420;51.202;8.698;2024-03-06T02:44:45;5.10;1.00
4813;DHT22;2420;51.202;8.698;2024-03-06T02:47:11;5.00;1.00
4813;DHT22;2420;51.202;8.698;2024-03-06T02:49:37;4.90;1.00
4813;DHT22;2420;51.202;8.698;2024-03-06T02:52:02;4.80;1.00
4813;DHT22;2420;51.202;8.698;2024-03-06T02:54:28;4.90;1.00
4813;DHT22;2420;51.202;8.698;2024-03-06T02:56:54;5.00;1.00
4813;DHT22;2420;51.202;8.698;2024-03-06T02:59:19;4.90;1.00
4813;DHT22;2420;51.202;8.698;2024-03-06T03:01:45;4.90;1.00
4813;DHT22;2420;51.202;8.698;2024-03-06T03:04:11;5.10;1.00
4813;DHT22;2420;51.202;8.698;2024-03-06T03:06:36;4.90;1.00
4813;DHT22;2420;51.202;8.698;2024-03-06T03:09:02;5.00;1.00
4813;DHT22;2420;51.202;8.698;2024-03-06T03:11:29;4.90;1.00
4813;DHT22;2420;51.202;8.698;2024-03-06T03:13:55;4.70;1.00
4813;DHT22;2420;51.202;8.698;2024-03-06T03:16:21;5.00;1.00
4813;DHT22;2420;51.202;8.698;2024-03-06T03:18:47;4.90;1.00
4813;DHT22;2420;51.202;8.698;2024-03-06T03:21:15;4.80;1.00
4813;DHT22;2420;51.202;8.698;2024-03-06T03:23:41;4.90;1.00
4813;DHT22;2420;51.202;8.698;2024-03-06T03:26:08;5.00;1.00
4813;DHT22;2420;51.202;8.698;2024-03-06T03:28:40;4.90;1.00
4813;DHT22;2420;51.202;8.698;2024-03-06T03:31:07;4.70;1.00
4813;DHT22;2420;51.202;8.698;2024-03-06T03:33:34;4.70;1.00
4813;DHT22;2420;51.202;8.698;2024-03-06T03:36:04;4.90;1.00
4813;DHT22;2420;51.202;8.698;2024-03-06T03:38:30;4.80;1.00
4813;DHT22;2420;51.202;8.698;2024-03-06T03:40:55;4.90;1.00
4813;DHT22;2420;51.202;8.698;2024-03-06T03:43:21;4.50;1.00
4813;DHT22;2420;51.202;8.698;2024-03-06T03:45:47;4.70;1.00
4813;DHT22;2420;51.202;8.698;2024-03-06T03:48:12;4.60;1.00
4813;DHT22;2420;51.202;8.698;2024-03-06T03:50:38;5.00;1.00
4813;DHT22;2420;51.202;8.698;2024-03-06T03:53:03;4.70;1.00
4813;DHT22;2420;51.202;8.698;2024-03-06T03:55:29;4.60;1.00
4813;DHT22;2420;51.202;8.698;2024-03-06T03:57:55;4.70;1.00
4813;DHT22;2420;51.202;8.698;2024-03-06T04:00:20;4.70;1.00
4813;DHT22;2420;51.202;8.698;2024-03-06T04:02:48;4.60;1.00
4813;DHT22;2420;51.202;8.698;2024-03-06T04:05:14;4.60;1.00
4813;DHT22;2420;51.202;8.698;2024-03-06T04:07:40;4.80;1.00
4813;DHT22;2420;51.202;8.698;2024-03-06T04:10:06;4.80;1.00
4813;DHT22;2420;51.202;8.698;2024-03-06T04:12:32;4.70;1.00
4813;DHT22;2420;51.202;8.698;2024-03-06T04:14:58;4.50;1.00
4813;DHT22;2420;51.202;8.698;2024-03-06T04:17:23;4.80;1.00
4813;DHT22;2420;51.202;8.698;2024-03-06T04:19:50;4.40;1.00
4813;DHT22;2420;51.202;8.698;2024-03-06T04:22:19;4.60;1.00
4813;DHT22;2420;51.202;8.698;2024-03-06T04:24:44;4.60;1.00
4813;DHT22;2420;51.202;8.698;2024-03-06T04:27:10;4.50;1.00
4813;DHT22;2420;51.202;8.698;2024-03-06T04:29:36;4.50;1.00
4813;DHT22;2420;51.202;8.698;2024-03-06T04:32:01;4.70;1.00
4813;DHT22;2420;51.202;8.698;2024-03-06T04:34:27;4.60;1.00
4813;DHT22;2420;51.202;8.698;2024-03-06T04:36:52;4.50;1.00
4813;DHT22;2420;51.202;8.698;2024-03-06T04:39:18;4.50;1.00
4813;DHT22;2420;51.202;8.698;2024-03-06T04:41:43;4.80;1.00
4813;DHT22;2420;51.202;8.698;2024-03-06T04:44:09;4.60;1.00
4813;DHT22;2420;51.202;8.698;2024-03-06T04:46:34;4.70;1.00
4813;DHT22;2420;51.202;8.698;2024-03-06T04:49:00;4.50;1.00
4813;DHT22;2420;51.202;8.698;2024-03-06T04:51:25;4.80;1.00
4813;DHT22;2420;51.202;8.698;2024-03-06T04:53:51;4.50;1.00
4813;DHT22;2420;51.202;8.698;2024-03-06T04:56:16;4.60;1.00
4813;DHT22;2420;51.202;8.698;2024-03-06T04:58:44;4.80;1.00
4813;DHT22;2420;51.202;8.698;2024-03-06T05:01:11;4.70;1.00
4813;DHT22;2420;51.202;8.698;2024-03-06T05:03:38;4.70;1.00
4813;DHT22;2420;51.202;8.698;2024-03-06T05:06:07;4.70;1.00
4813;DHT22;2420;51.202;8.698;2024-03-06T05:08:32;4.50;1.00
4813;DHT22;2420;51.202;8.698;2024-03-06T05:11:02;4.80;1.00
4813;DHT22;2420;51.202;8.698;2024-03-06T05:13:27;4.50;1.00
4813;DHT22;2420;51.202;8.698;2024-03-06T05:15:53;4.70;1.00
4813;DHT22;2420;51.202;8.698;2024-03-06T05:18:20;4.60;1.00
4813;DHT22;2420;51.202;8.698;2024-03-06T05:20:46;4.70;1.00
4813;DHT22;2420;51.202;8.698;2024-03-06T05:23:12;4.80;1.00
4813;DHT22;2420;51.202;8.698;2024-03-06T05:25:38;4.50;1.00
4813;DHT22;2420;51.202;8.698;2024-03-06T05:28:04;4.50;1.00
4813;DHT22;2420;51.202;8.698;2024-03-06T05:30:30;4.70;1.00
4813;DHT22;2420;51.202;8.698;2024-03-06T05:32:56;4.60;1.00
4813;DHT22;2420;51.202;8.698;2024-03-06T05:35:21;4.70;1.00
4813;DHT22;2420;51.202;8.698;2024-03-06T05:37:47;4.40;1.00
4813;DHT22;2420;51.202;8.698;2024-03-06T05:40:12;4.70;1.00
4813;DHT22;2420;51.202;8.698;2024-03-06T05:42:38;4.60;1.00
4813;DHT22;2420;51.202;8.698;2024-03-06T05:45:04;4.80;1.00
4813;DHT22;2420;51.202;8.698;2024-03-06T05:47:38;4.90;1.00
4813;DHT22;2420;51.202;8.698;2024-03-06T05:50:07;5.00;1.00
4813;DHT22;2420;51.202;8.698;2024-03-06T05:52:33;4.60;1.00
4813;DHT22;2420;51.202;8.698;2024-03-06T05:55:02;4.50;1.00
4813;DHT22;2420;51.202;8.698;2024-03-06T05:57:27;4.60;1.00
4813;DHT22;2420;51.202;8.698;2024-03-06T05:59:53;4.50;1.00
4813;DHT22;2420;51.202;8.698;2024-03-06T06:02:19;4.60;1.00
4813;DHT22;2420;51.202;8.698;2024-03-06T06:04:47;4.60;1.00
4813;DHT22;2420;51.202;8.698;2024-03-06T06:07:13;4.70;1.00
4813;DHT22;2420;51.202;8.698;2024-03-06T06:09:38;4.80;1.00
4813;DHT22;2420;51.202;8.698;2024-03-06T06:12:04;4.60;1.00
4813;DHT22;2420;51.202;8.698;2024-03-06T06:14:29;4.70;1.00
4813;DHT22;2420;51.202;8.698;2024-03-06T06:16:58;4.40;1.00
4813;DHT22;2420;51.202;8.698;2024-03-06T06:19:24;4.50;1.00
4813;DHT22;2420;51.202;8.698;2024-03-06T06:21:53;4.50;1.00
4813;DHT22;2420;51.202;8.698;2024-03-06T06:24:19;4.70;1.00
4813;DHT22;2420;51.202;8.698;2024-03-06T06:26:44;4.60;1.00
4813;DHT22;2420;51.202;8.698;2024-03-06T06:29:10;4.60;1.00
4813;DHT22;2420;51.202;8.698;2024-03-06T06:31:36;4.70;1.00
4813;DHT22;2420;51.202;8.698;2024-03-06T06:34:01;4.80;1.00
4813;DHT22;2420;51.202;8.698;2024-03-06T06:36:27;4.60;1.00
4813;DHT22;2420;51.202;8.698;2024-03-06T06:38:53;4.70;1.00
4813;DHT22;2420;51.202;8.698;2024-03-06T06:41:19;4.80;1.00
4813;DHT22;2420;51.202;8.698;2024-03-06T06:43:45;4.70;1.00
4813;DHT22;2420;51.202;8.698;2024-03-06T06:46:10;4.80;1.00
4813;DHT22;2420;51.202;8.698;2024-03-06T06:48:36;4.70;1.00
4813;DHT22;2420;51.202;8.698;2024-03-06T06:51:02;4.90;1.00
4813;DHT22;2420;51.202;8.698;2024-03-06T06:53:31;4.90;1.00
4813;DHT22;2420;51.202;8.698;2024-03-06T06:55:57;4.70;1.00
4813;DHT22;2420;51.202;8.698;2024-03-06T06:58:23;4.90;1.00
4813;DHT22;2420;51.202;8.698;2024-03-06T07:00:49;4.90;1.00
4813;DHT22;2420;51.202;8.698;2024-03-06T07:03:14;5.10;1.00
4813;DHT22;2420;51.202;8.698;2024-03-06T07:05:40;5.30;1.00
4813;DHT22;2420;51.202;8.698;2024-03-06T07:08:08;5.00;1.00
4813;DHT22;2420;51.202;8.698;2024-03-06T07:10:33;5.20;1.00
4813;DHT22;2420;51.202;8.698;2024-03-06T07:13:01;5.40;1.00
4813;DHT22;2420;51.202;8.698;2024-03-06T07:15:28;5.30;1.00
4813;DHT22;2420;51.202;8.698;2024-03-06T07:17:54;5.00;1.00
4813;DHT22;2420;51.202;8.698;2024-03-06T07:20:19;5.10;1.00
4813;DHT22;2420;51.202;8.698;2024-03-06T07:22:45;5.30;1.00
4813;DHT22;2420;51.202;8.698;2024-03-06T07:25:11;5.20;1.00
4813;DHT22;2420;51.202;8.698;2024-03-06T07:27:36;5.30;1.00
4813;DHT22;2420;51.202;8.698;2024-03-06T07:30:02;5.30;1.00
4813;DHT22;2420;51.202;8.698;2024-03-06T07:32:28;5.40;1.00
4813;DHT22;2420;51.202;8.698;2024-03-06T07:34:54;5.20;1.00
4813;DHT22;2420;51.202;8.698;2024-03-06T07:37:19;5.30;1.00
4813;DHT22;2420;51.202;8.698;2024-03-06T07:39:45;5.40;1.00
4813;DHT22;2420;51.202;8.698;2024-03-06T07:42:11;5.30;1.00
4813;DHT22;2420;51.202;8.698;2024-03-06T07:44:36;5.60;1.00
4813;DHT22;2420;51.202;8.698;2024-03-06T07:47:02;5.60;1.00
4813;DHT22;2420;51.202;8.698;2024-03-06T07:49:29;5.90;1.00
4813;DHT22;2420;51.202;8.698;2024-03-06T07:51:54;5.50;1.00
4813;DHT22;2420;51.202;8.698;2024-03-06T07:54:20;5.70;1.00
4813;DHT22;2420;51.202;8.698;2024-03-06T07:56:46;5.90;1.00
4813;DHT22;2420;51.202;8.698;2024-03-06T07:59:12;5.90;1.00
4813;DHT22;2420;51.202;8.698;2024-03-06T08:01:39;5.70;1.00
4813;DHT22;2420;51.202;8.698;2024-03-06T08:04:05;5.80;1.00
4813;DHT22;2420;51.202;8.698;2024-03-06T08:06:30;5.70;1.00
4813;DHT22;2420;51.202;8.698;2024-03-06T08:08:58;5.90;1.00
4813;DHT22;2420;51.202;8.698;2024-03-06T08:11:24;5.80;1.00
4813;DHT22;2420;51.202;8.698;2024-03-06T08:13:57;5.80;1.00
4813;DHT22;2420;51.202;8.698;2024-03-06T08:16:22;5.90;1.00
4813;DHT22;2420;51.202;8.698;2024-03-06T08:18:48;5.90;1.00
4813;DHT22;2420;51.202;8.698;2024-03-06T08:21:13;6.00;1.00
4813;DHT22;2420;51.202;8.698;2024-03-06T08:23:39;6.00;1.00
4813;DHT22;2420;51.202;8.698;2024-03-06T08:26:05;6.10;1.00
4813;DHT22;2420;51.202;8.698;2024-03-06T08:28:31;6.10;1.00
4813;DHT22;2420;51.202;8.698;2024-03-06T08:30:57;6.20;1.00
4813;DHT22;2420;51.202;8.698;2024-03-06T08:33:22;6.40;1.00
4813;DHT22;2420;51.202;8.698;2024-03-06T08:35:48;6.30;1.00
4813;DHT22;2420;51.202;8.698;2024-03-06T08:38:14;6.40;1.00
4813;DHT22;2420;51.202;8.698;2024-03-06T08:40:39;6.50;1.00
4813;DHT22;2420;51.202;8.698;2024-03-06T08:43:07;6.40;1.00
4813;DHT22;2420;51.202;8.698;2024-03-06T08:45:34;6.50;1.00
4813;DHT22;2420;51.202;8.698;2024-03-06T08:48:00;6.60;1.00
4813;DHT22;2420;51.202;8.698;2024-03-06T08:50:25;6.50;1.00
4813;DHT22;2420;51.202;8.698;2024-03-06T08:52:51;6.70;1.00
4813;DHT22;2420;51.202;8.698;2024-03-06T08:55:17;6.60;1.00
4813;DHT22;2420;51.202;8.698;2024-03-06T08:57:43;6.60;1.00
4813;DHT22;2420;51.202;8.698;2024-03-06T09:00:09;6.50;1.00
4813;DHT22;2420;51.202;8.698;2024-03-06T09:02:38;6.80;1.00
4813;DHT22;2420;51.202;8.698;2024-03-06T09:05:05;6.90;1.00
4813;DHT22;2420;51.202;8.698;2024-03-06T09:07:31;6.90;1.00
4813;DHT22;2420;51.202;8.698;2024-03-06T09:09:56;6.40;1.00
4813;DHT22;2420;51.202;8.698;2024-03-06T09:12:22;6.80;1.00
4813;DHT22;2420;51.202;8.698;2024-03-06T09:14:48;6.80;1.00
4813;DHT22;2420;51.202;8.698;2024-03-06T09:17:13;6.90;1.00
4813;DHT22;2420;51.202;8.698;2024-03-06T09:19:40;6.80;1.00
4813;DHT22;2420;51.202;8.698;2024-03-06T09:22:06;6.90;1.00
4813;DHT22;2420;51.202;8.698;2024-03-06T09:24:31;7.00;1.00
4813;DHT22;2420;51.202;8.698;2024-03-06T09:26:57;6.80;1.00
4813;DHT22;2420;51.202;8.698;2024-03-06T09:29:23;6.90;1.00
4813;DHT22;2420;51.202;8.698;2024-03-06T09:31:49;7.00;1.00
4813;DHT22;2420;51.202;8.698;2024-03-06T09:34:15;7.20;1.00
4813;DHT22;2420;51.202;8.698;2024-03-06T09:36:41;7.20;1.00
4813;DHT22;2420;51.202;8.698;2024-03-06T09:39:14;7.20;1.00
4813;DHT22;2420;51.202;8.698;2024-03-06T09:41:49;7.20;1.00
4813;DHT22;2420;51.202;8.698;2024-03-06T09:44:16;7.30;1.00
4813;DHT22;2420;51.202;8.698;2024-03-06T09:46:46;7.30;1.00
4813;DHT22;2420;51.202;8.698;2024-03-06T09:49:13;7.40;1.00
4813;DHT22;2420;51.202;8.698;2024-03-06T09:51:46;7.40;1.00
4813;DHT22;2420;51.202;8.698;2024-03-06T09:54:13;7.40;1.00
4813;DHT22;2420;51.202;8.698;2024-03-06T09:56:41;7.10;1.00
4813;DHT22;2420;51.202;8.698;2024-03-06T09:59:08;6.90;1.00
4813;DHT22;2420;51.202;8.698;2024-03-06T10:01:39;6.90;1.00
4813;DHT22;2420;51.202;8.698;2024-03-06T10:04:25;7.20;1.00
4813;DHT22;2420;51.202;8.698;2024-03-06T10:06:54;7.20;1.00
4813;DHT22;2420;51.202;8.698;2024-03-06T10:09:23;7.30;1.00
4813;DHT22;2420;51.202;8.698;2024-03-06T10:11:49;7.20;1.00
4813;DHT22;2420;51.202;8.698;2024-03-06T10:14:15;7.10;1.00
4813;DHT22;2420;51.202;8.698;2024-03-06T10:16:58;7.00;1.00
4813;DHT22;2420;51.202;8.698;2024-03-06T10:19:28;6.70;1.00
4813;DHT22;2420;51.202;8.698;2024-03-06T10:21:55;7.00;1.00
4813;DHT22;2420;51.202;8.698;2024-03-06T10:24:26;7.10;1.00
4813;DHT22;2420;51.202;8.698;2024-03-06T10:26:55;7.20;1.00
4813;DHT22;2420;51.202;8.698;2024-03-06T10:29:22;7.40;1.00
4813;DHT22;2420;51.202;8.698;2024-03-06T10:31:53;7.20;1.00
4813;DHT22;2420;51.202;8.698;2024-03-06T10:34:21;7.20;1.00
4813;DHT22;2420;51.202;8.698;2024-03-06T10:36:53;6.90;1.00
4813;DHT22;2420;51.202;8.698;2024-03-06T10:39:20;7.30;1.00
4813;DHT22;2420;51.202;8.698;2024-03-06T10:41:46;7.30;1.00
4813;DHT22;2420;51.202;8.698;2024-03-06T10:44:17;7.40;1.00
4813;DHT22;2420;51.202;8.698;2024-03-06T10:46:46;7.30;1.00
4813;DHT22;2420;51.202;8.698;2024-03-06T10:49:13;7.20;1.00
4813;DHT22;2420;51.202;8.698;2024-03-06T10:51:44;7.30;1.00
4813;DHT22;2420;51.202;8.698;2024-03-06T10:54:11;7.00;1.00
4813;DHT22;2420;51.202;8.698;2024-03-06T10:56:40;7.40;1.00
4813;DHT22;2420;51.202;8.698;2024-03-06T10:59:10;7.40;1.00
4813;DHT22;2420;51.202;8.698;2024-03-06T11:01:37;7.50;1.00
4813;DHT22;2420;51.202;8.698;2024-03-06T11:04:03;7.50;1.00
4813;DHT22;2420;51.202;8.698;2024-03-06T11:06:31;7.60;1.00
4813;DHT22;2420;51.202;8.698;2024-03-06T11:08:56;7.60;1.00
4813;DHT22;2420;51.202;8.698;2024-03-06T11:11:23;7.70;1.00
4813;DHT22;2420;51.202;8.698;2024-03-06T11:13:49;7.70;1.00
4813;DHT22;2420;51.202;8.698;2024-03-06T11:16:15;7.80;1.00
4813;DHT22;2420;51.202;8.698;2024-03-06T11:18:42;7.80;1.00
4813;DHT22;2420;51.202;8.698;2024-03-06T11:26:37;7.80;1.00
4813;DHT22;2420;51.202;8.698;2024-03-06T11:29:08;7.90;1.00
4813;DHT22;2420;51.202;8.698;2024-03-06T11:31:34;7.90;1.00
4813;DHT22;2420;51.202;8.698;2024-03-06T11:34:04;7.90;1.00
4813;DHT22;2420;51.202;8.698;2024-03-06T11:36:30;7.90;1.00
4813;DHT22;2420;51.202;8.698;2024-03-06T11:39:06;7.90;1.00
4813;DHT22;2420;51.202;8.698;2024-03-06T11:41:49;8.00;1.00
4813;DHT22;2420;51.202;8.698;2024-03-06T11:44:19;8.00;1.00
4813;DHT22;2420;51.202;8.698;2024-03-06T11:46:50;8.10;1.00
4813;DHT22;2420;51.202;8.698;2024-03-06T11:49:19;8.30;1.00
4813;DHT22;2420;51.202;8.698;2024-03-06T11:51:53;8.50;1.00
4813;DHT22;2420;51.202;8.698;2024-03-06T11:54:19;8.60;1.00
4813;DHT22;2420;51.202;8.698;2024-03-06T11:56:50;8.70;1.00
4813;DHT22;2420;51.202;8.698;2024-03-06T11:59:17;8.60;1.00
4813;DHT22;2420;51.202;8.698;2024-03-06T12:01:43;8.60;1.00
4813;DHT22;2420;51.202;8.698;2024-03-06T12:04:08;8.50;1.00
4813;DHT22;2420;51.202;8.698;2024-03-06T12:06:36;8.60;1.00
4813;DHT22;2420;51.202;8.698;2024-03-06T12:09:03;8.50;1.00
4813;DHT22;2420;51.202;8.698;2024-03-06T12:11:29;8.60;1.00
4813;DHT22;2420;51.202;8.698;2024-03-06T12:13:56;8.60;1.00
4813;DHT22;2420;51.202;8.698;2024-03-06T12:16:23;8.60;1.00
4813;DHT22;2420;51.202;8.698;2024-03-06T12:18:55;8.70;1.00
4813;DHT22;2420;51.202;8.698;2024-03-06T12:21:31;8.60;1.00
4813;DHT22;2420;51.202;8.698;2024-03-06T12:24:04;8.50;1.00
4813;DHT22;2420;51.202;8.698;2024-03-06T12:26:30;8.50;1.00
4813;DHT22;2420;51.202;8.698;2024-03-06T12:29:09;8.50;1.00
4813;DHT22;2420;51.202;8.698;2024-03-06T12:31:38;8.50;1.00
4813;DHT22;2420;51.202;8.698;2024-03-06T12:34:05;8.50;1.00
4813;DHT22;2420;51.202;8.698;2024-03-06T12:36:32;8.50;1.00
4813;DHT22;2420;51.202;8.698;2024-03-06T12:39:04;8.50;1.00
4813;DHT22;2420;51.202;8.698;2024-03-06T12:41:39;8.40;1.00
4813;DHT22;2420;51.202;8.698;2024-03-06T12:44:05;8.50;1.00
4813;DHT22;2420;51.202;8.698;2024-03-06T12:46:32;8.40;1.00
4813;DHT22;2420;51.202;8.698;2024-03-06T12:48:58;8.40;1.00
4813;DHT22;2420;51.202;8.698;2024-03-06T12:51:23;8.30;1.00
4813;DHT22;2420;51.202;8.698;2024-03-06T12:53:49;8.30;1.00
4813;DHT22;2420;51.202;8.698;2024-03-06T12:56:15;8.20;1.00
4813;DHT22;2420;51.202;8.698;2024-03-06T12:58:41;8.10;1.00
4813;DHT22;2420;51.202;8.698;2024-03-06T13:01:06;8.10;1.00
4813;DHT22;2420;51.202;8.698;2024-03-06T13:03:32;8.20;1.00
4813;DHT22;2420;51.202;8.698;2024-03-06T13:05:58;8.20;1.00
4813;DHT22;2420;51.202;8.698;2024-03-06T13:08:24;8.10;1.00
4813;DHT22;2420;51.202;8.698;2024-03-06T13:10:50;8.10;1.00
4813;DHT22;2420;51.202;8.698;2024-03-06T13:13:16;8.10;1.00
4813;DHT22;2420;51.202;8.698;2024-03-06T13:15:41;8.20;1.00
4813;DHT22;2420;51.202;8.698;2024-03-06T13:18:07;8.30;1.00
4813;DHT22;2420;51.202;8.698;2024-03-06T13:20:33;8.20;1.00
4813;DHT22;2420;51.202;8.698;2024-03-06T13:22:59;8.20;1.00
4813;DHT22;2420;51.202;8.698;2024-03-06T13:25:26;8.30;1.00
4813;DHT22;2420;51.202;8.698;2024-03-06T13:27:52;8.30;1.00
4813;DHT22;2420;51.202;8.698;2024-03-06T13:30:18;8.40;1.00
4813;DHT22;2420;51.202;8.698;2024-03-06T13:32:44;8.40;1.00
4813;DHT22;2420;51.202;8.698;2024-03-06T13:35:14;8.50;1.00
4813;DHT22;2420;51.202;8.698;2024-03-06T13:37:43;8.40;1.00
4813;DHT22;2420;51.202;8.698;2024-03-06T13:40:10;8.40;1.00
4813;DHT22;2420;51.202;8.698;2024-03-06T13:42:39;8.50;1.00
4813;DHT22;2420;51.202;8.698;2024-03-06T13:45:06;8.70;1.00
4813;DHT22;2420;51.202;8.698;2024-03-06T13:47:39;8.90;1.00
4813;DHT22;2420;51.202;8.698;2024-03-06T13:50:10;8.90;1.00
4813;DHT22;2420;51.202;8.698;2024-03-06T13:52:36;8.90;1.00
4813;DHT22;2420;51.202;8.698;2024-03-06T13:55:02;9.00;1.00
4813;DHT22;2420;51.202;8.698;2024-03-06T13:57:31;8.90;1.00
4813;DHT22;2420;51.202;8.698;2024-03-06T14:00:02;8.80;1.00
4813;DHT22;2420;51.202;8.698;2024-03-06T14:02:30;8.80;1.00
4813;DHT22;2420;51.202;8.698;2024-03-06T14:04:56;8.80;1.00
4813;DHT22;2420;51.202;8.698;2024-03-06T14:07:21;8.70;1.00
4813;DHT22;2420;51.202;8.698;2024-03-06T14:09:49;8.60;1.00
4813;DHT22;2420;51.202;8.698;2024-03-06T14:12:15;8.60;1.00
4813;DHT22;2420;51.202;8.698;2024-03-06T14:14:40;8.60;1.00
4813;DHT22;2420;51.202;8.698;2024-03-06T14:17:06;8.60;1.00
4813;DHT22;2420;51.202;8.698;2024-03-06T14:19:31;8.60;1.00
4813;DHT22;2420;51.202;8.698;2024-03-06T14:21:57;8.70;1.00
4813;DHT22;2420;51.202;8.698;2024-03-06T14:24:22;8.70;1.00
4813;DHT22;2420;51.202;8.698;2024-03-06T14:26:48;8.70;1.00
4813;DHT22;2420;51.202;8.698;2024-03-06T14:29:14;8.70;1.00
4813;DHT22;2420;51.202;8.698;2024-03-06T14:31:40;8.70;1.00
4813;DHT22;2420;51.202;8.698;2024-03-06T14:34:05;8.60;1.00
4813;DHT22;2420;51.202;8.698;2024-03-06T14:36:32;8.60;1.00
4813;DHT22;2420;51.202;8.698;2024-03-06T14:38:58;8.50;1.00
4813;DHT22;2420;51.202;8.698;2024-03-06T14:41:23;8.40;1.00
4813;DHT22;2420;51.202;8.698;2024-03-06T14:43:49;8.30;1.00
4813;DHT22;2420;51.202;8.698;2024-03-06T14:46:14;8.30;1.00
4813;DHT22;2420;51.202;8.698;2024-03-06T14:48:49;8.40;1.00
4813;DHT22;2420;51.202;8.698;2024-03-06T14:51:15;8.30;1.00
4813;DHT22;2420;51.202;8.698;2024-03-06T14:53:40;8.20;1.00
4813;DHT22;2420;51.202;8.698;2024-03-06T14:56:07;8.20;1.00
4813;DHT22;2420;51.202;8.698;2024-03-06T14:58:32;8.20;1.00
4813;DHT22;2420;51.202;8.698;2024-03-06T15:00:58;8.10;1.00
4813;DHT22;2420;51.202;8.698;2024-03-06T15:03:24;8.20;1.00
4813;DHT22;2420;51.202;8.698;2024-03-06T15:05:49;8.40;1.00
4813;DHT22;2420;51.202;8.698;2024-03-06T15:08:15;8.60;1.00
4813;DHT22;2420;51.202;8.698;2024-03-06T15:10:41;8.60;1.00
4813;DHT22;2420;51.202;8.698;2024-03-06T15:13:06;8.70;1.00
4813;DHT22;2420;51.202;8.698;2024-03-06T15:15:35;8.80;1.00
4813;DHT22;2420;51.202;8.698;2024-03-06T15:18:00;8.80;1.00
4813;DHT22;2420;51.202;8.698;2024-03-06T15:20:29;8.70;1.00
4813;DHT22;2420;51.202;8.698;2024-03-06T15:22:55;8.70;1.00
4813;DHT22;2420;51.202;8.698;2024-03-06T15:25:21;8.50;1.00
4813;DHT22;2420;51.202;8.698;2024-03-06T15:27:46;8.40;1.00
4813;DHT22;2420;51.202;8.698;2024-03-06T15:30:12;8.20;1.00
4813;DHT22;2420;51.202;8.698;2024-03-06T15:32:39;8.20;1.00
4813;DHT22;2420;51.202;8.698;2024-03-06T15:35:05;8.10;1.00
4813;DHT22;2420;51.202;8.698;2024-03-06T15:37:31;8.00;1.00
4813;DHT22;2420;51.202;8.698;2024-03-06T15:39:57;8.00;1.00
4813;DHT22;2420;51.202;8.698;2024-03-06T15:42:24;7.90;1.00
4813;DHT22;2420;51.202;8.698;2024-03-06T15:44:50;7.80;1.00
4813;DHT22;2420;51.202;8.698;2024-03-06T15:47:17;7.70;1.00
4813;DHT22;2420;51.202;8.698;2024-03-06T15:49:43;7.80;1.00
4813;DHT22;2420;51.202;8.698;2024-03-06T15:52:10;7.80;1.00
4813;DHT22;2420;51.202;8.698;2024-03-06T15:54:36;7.80;1.00
4813;DHT22;2420;51.202;8.698;2024-03-06T15:57:03;7.70;1.00
4813;DHT22;2420;51.202;8.698;2024-03-06T15:59:29;7.70;1.00
4813;DHT22;2420;51.202;8.698;2024-03-06T16:01:55;7.70;1.00
4813;DHT22;2420;51.202;8.698;2024-03-06T16:04:21;7.50;1.00
4813;DHT22;2420;51.202;8.698;2024-03-06T16:06:47;7.50;1.00
4813;DHT22;2420;51.202;8.698;2024-03-06T16:09:12;7.40;1.00
4813;DHT22;2420;51.202;8.698;2024-03-06T16:11:39;7.10;1.00
4813;DHT22;2420;51.202;8.698;2024-03-06T16:14:05;7.30;1.00
4813;DHT22;2420;51.202;8.698;2024-03-06T16:16:31;7.30;1.00
4813;DHT22;2420;51.202;8.698;2024-03-06T16:18:57;7.30;1.00
4813;DHT22;2420;51.202;8.698;2024-03-06T16:21:24;7.30;1.00
4813;DHT22;2420;51.202;8.698;2024-03-06T16:23:50;7.30;1.00
4813;DHT22;2420;51.202;8.698;2024-03-06T16:26:18;7.20;1.00
4813;DHT22;2420;51.202;8.698;2024-03-06T16:28:43;7.20;1.00
4813;DHT22;2420;51.202;8.698;2024-03-06T16:31:09;6.80;1.00
4813;DHT22;2420;51.202;8.698;2024-03-06T16:33:35;6.60;1.00
4813;DHT22;2420;51.202;8.698;2024-03-06T16:36:01;7.00;1.00